createdAt,value
2023-03-10T00:00:23.048Z,43.02
2023-03-10T00:02:50.303Z,42.96
2023-03-10T00:05:18.506Z,42.93
2023-03-10T00:07:45.667Z,42.75
2023-03-10T00:10:14.114Z,42.90
2023-03-10T00:12:41.118Z,43.03
2023-03-10T00:15:08.745Z,42.90
2023-03-10T00:17:35.328Z,43.08
2023-03-10T00:20:02.308Z,43.23
2023-03-10T00:22:28.858Z,43.03
2023-03-10T00:24:55.425Z,42.97
2023-03-10T00:27:21.980Z,42.99
2023-03-10T00:29:51.601Z,43.06
2023-03-10T00:32:18.492Z,42.78
2023-03-10T00:34:45.184Z,42.96
2023-03-10T00:37:11.894Z,42.88
2023-03-10T00:39:38.474Z,42.55
2023-03-10T00:42:05.095Z,42.89
2023-03-10T00:44:31.661Z,43.02
2023-03-10T00:46:58.248Z,43.11
2023-03-10T00:49:24.841Z,43.16
2023-03-10T00:51:51.399Z,43.08
2023-03-10T00:54:17.966Z,43.13
2023-03-10T00:56:44.553Z,43.05
2023-03-10T00:59:12.342Z,43.13
2023-03-10T01:01:41.395Z,43.28
2023-03-10T01:04:13.680Z,43.17
2023-03-10T01:06:40.676Z,43.36
2023-03-10T01:09:07.411Z,42.94
2023-03-10T01:11:34.505Z,43.22
2023-03-10T01:14:03.136Z,43.27
2023-03-10T01:16:29.837Z,43.23
2023-03-10T01:18:57.345Z,43.33
2023-03-10T01:21:26.593Z,43.40
2023-03-10T01:23:53.306Z,43.10
2023-03-10T01:26:20.422Z,43.18
2023-03-10T01:28:48.016Z,43.20
2023-03-10T01:31:15.141Z,43.32
2023-03-10T01:33:42.900Z,43.22
2023-03-10T01:36:09.639Z,43.30
2023-03-10T01:38:37.394Z,43.28
2023-03-10T01:41:04.817Z,43.16
2023-03-10T01:43:41.838Z,43.36
2023-03-10T01:46:26.877Z,43.29
2023-03-10T01:48:55.159Z,43.30
2023-03-10T01:51:21.734Z,43.28
2023-03-10T01:53:48.319Z,43.32
2023-03-10T01:56:14.887Z,43.22
2023-03-10T01:58:44.622Z,43.43
2023-03-10T02:01:11.950Z,43.30
2023-03-10T02:03:50.355Z,43.55
2023-03-10T02:06:19.506Z,43.52
2023-03-10T02:08:49.417Z,43.43
2023-03-10T02:11:16.675Z,43.44
2023-03-10T02:13:43.589Z,43.66
2023-03-10T02:16:10.320Z,43.31
2023-03-10T02:18:37.031Z,43.28
2023-03-10T02:21:12.498Z,43.32
2023-03-10T02:23:51.340Z,43.24
2023-03-10T02:26:43.372Z,43.35
2023-03-10T02:29:32.547Z,43.37
2023-03-10T02:31:59.948Z,43.27
2023-03-10T02:34:27.062Z,43.47
2023-03-10T02:36:53.759Z,43.30
2023-03-10T02:39:20.359Z,43.34
2023-03-10T02:41:47.452Z,43.30
2023-03-10T02:44:19.647Z,43.38
2023-03-10T02:46:46.187Z,43.35
2023-03-10T02:49:12.793Z,43.44
2023-03-10T02:51:42.801Z,43.33
2023-03-10T02:54:10.307Z,43.29
2023-03-10T02:56:38.182Z,43.32
2023-03-10T02:59:06.584Z,43.31
2023-03-10T03:01:33.528Z,43.35
2023-03-10T03:04:00.714Z,43.20
2023-03-10T03:06:28.476Z,43.36
2023-03-10T03:08:55.258Z,43.24
2023-03-10T03:11:21.894Z,43.43
2023-03-10T03:13:48.468Z,43.39
2023-03-10T03:16:15.126Z,43.20
2023-03-10T03:18:41.707Z,43.37
2023-03-10T03:21:11.336Z,43.20
2023-03-10T03:23:38.228Z,43.22
2023-03-10T03:26:05.780Z,43.32
2023-03-10T03:28:32.331Z,43.32
2023-03-10T03:30:59.297Z,43.36
2023-03-10T03:33:25.889Z,43.61
2023-03-10T03:35:52.455Z,43.24
2023-03-10T03:38:19.074Z,43.31
2023-03-10T03:40:46.021Z,43.41
2023-03-10T03:43:13.820Z,43.43
2023-03-10T03:45:40.728Z,43.25
2023-03-10T03:48:07.299Z,43.26
2023-03-10T03:50:33.859Z,43.40
2023-03-10T03:53:00.427Z,43.32
2023-03-10T03:55:27.096Z,43.32
2023-03-10T03:57:53.650Z,43.58
2023-03-10T04:00:23.472Z,43.36
2023-03-10T04:02:50.666Z,43.65
2023-03-10T04:05:17.288Z,43.34
2023-03-10T04:07:45.158Z,43.31
2023-03-10T04:10:14.887Z,43.38
2023-03-10T04:12:41.463Z,43.59
2023-03-10T04:15:08.430Z,43.45
2023-03-10T04:17:35.569Z,43.63
2023-03-10T04:20:09.924Z,43.30
2023-03-10T04:22:36.590Z,43.54
2023-03-10T04:25:04.319Z,43.38
2023-03-10T04:27:31.204Z,43.32
2023-03-10T04:29:57.835Z,43.24
2023-03-10T04:32:24.694Z,43.10
2023-03-10T04:34:51.837Z,43.36
2023-03-10T04:37:18.477Z,43.32
2023-03-10T04:39:45.024Z,43.45
2023-03-10T04:42:11.599Z,43.19
2023-03-10T04:44:38.199Z,43.48
2023-03-10T04:47:04.890Z,43.37
2023-03-10T04:49:31.443Z,43.45
2023-03-10T04:51:58.027Z,43.47
2023-03-10T04:54:24.625Z,43.37
2023-03-10T04:56:51.187Z,43.26
2023-03-10T04:59:18.027Z,43.42
2023-03-10T05:01:44.628Z,43.46
2023-03-10T05:04:11.334Z,43.56
2023-03-10T05:06:37.934Z,43.40
2023-03-10T05:09:04.942Z,43.39
2023-03-10T05:11:32.045Z,43.34
2023-03-10T05:13:58.666Z,43.32
2023-03-10T05:16:25.720Z,43.16
2023-03-10T05:18:52.614Z,42.96
2023-03-10T05:21:21.562Z,43.37
2023-03-10T05:23:48.911Z,43.43
2023-03-10T05:26:15.719Z,43.49
2023-03-10T05:28:42.329Z,43.46
2023-03-10T05:31:14.587Z,43.45
2023-03-10T05:33:42.020Z,43.62
2023-03-10T05:36:10.569Z,43.31
2023-03-10T05:38:37.785Z,43.46
2023-03-10T05:41:11.237Z,43.45
2023-03-10T05:43:38.504Z,43.25
2023-03-10T05:46:05.785Z,43.43
2023-03-10T05:48:32.583Z,43.47
2023-03-10T05:51:05.027Z,43.37
2023-03-10T05:53:32.835Z,43.29
2023-03-10T05:55:59.767Z,43.37
2023-03-10T05:58:26.810Z,43.49
2023-03-10T06:00:53.612Z,43.55
2023-03-10T06:03:20.270Z,43.26
2023-03-10T06:05:46.954Z,43.48
2023-03-10T06:08:13.506Z,43.39
2023-03-10T06:10:40.112Z,43.41
2023-03-10T06:13:06.714Z,43.35
2023-03-10T06:15:33.295Z,43.63
2023-03-10T06:17:59.887Z,43.40
2023-03-10T06:20:26.548Z,43.55
2023-03-10T06:22:53.397Z,43.50
2023-03-10T06:25:20.388Z,43.45
2023-03-10T06:27:47.541Z,43.40
2023-03-10T06:30:15.099Z,43.79
2023-03-10T06:32:42.096Z,43.74
2023-03-10T06:35:09.938Z,43.59
2023-03-10T06:37:36.484Z,43.59
2023-03-10T06:40:04.427Z,43.35
2023-03-10T06:42:32.440Z,43.86
2023-03-10T06:44:59.038Z,43.46
2023-03-10T06:47:25.594Z,43.51
2023-03-10T06:49:54.665Z,43.43
2023-03-10T06:52:21.269Z,43.41
2023-03-10T06:54:47.825Z,43.46
2023-03-10T06:57:14.375Z,43.21
2023-03-10T06:59:41.041Z,43.39
2023-03-10T07:02:07.630Z,43.42
2023-03-10T07:04:34.235Z,43.39
2023-03-10T07:07:00.850Z,42.66
2023-03-10T07:09:27.413Z,42.72
2023-03-10T07:11:53.961Z,42.56
2023-03-10T07:14:20.524Z,42.52
2023-03-10T07:16:47.117Z,42.22
2023-03-10T07:19:13.768Z,41.81
2023-03-10T07:21:40.520Z,41.47
2023-03-10T07:24:07.128Z,41.47
2023-03-10T07:26:33.949Z,41.28
2023-03-10T07:29:02.565Z,41.02
2023-03-10T07:31:29.408Z,41.06
2023-03-10T07:33:56.246Z,41.03
2023-03-10T07:36:23.566Z,40.97
2023-03-10T07:38:50.909Z,40.72
2023-03-10T07:41:19.588Z,40.70
2023-03-10T07:43:46.497Z,41.05
2023-03-10T07:46:14.393Z,40.95
2023-03-10T07:48:41.306Z,41.05
2023-03-10T07:51:08.040Z,40.77
2023-03-10T07:53:34.988Z,40.74
2023-03-10T07:56:12.561Z,40.88
2023-03-10T07:58:39.750Z,40.85
2023-03-10T08:01:07.587Z,40.97
2023-03-10T08:03:34.730Z,41.04
2023-03-10T08:06:02.520Z,41.16
2023-03-10T08:08:29.172Z,41.29
2023-03-10T08:11:06.786Z,41.06
2023-03-10T08:13:33.458Z,41.05
2023-03-10T08:16:01.387Z,41.16
2023-03-10T08:18:29.436Z,41.04
2023-03-10T08:20:56.286Z,41.48
2023-03-10T08:23:23.386Z,41.81
2023-03-10T08:25:50.016Z,41.75
2023-03-10T08:28:17.008Z,41.55
2023-03-10T08:31:00.905Z,41.43
2023-03-10T08:33:30.771Z,41.65
2023-03-10T08:36:08.674Z,41.55
2023-03-10T08:38:36.488Z,41.43
2023-03-10T08:41:15.091Z,41.27
2023-03-10T08:43:42.652Z,41.33
2023-03-10T08:46:10.261Z,41.29
2023-03-10T08:48:37.274Z,41.48
2023-03-10T08:51:04.385Z,41.25
2023-03-10T08:53:31.014Z,41.44
2023-03-10T08:55:58.033Z,41.34
2023-03-10T08:58:24.808Z,41.33
2023-03-10T09:00:52.156Z,41.34
2023-03-10T09:03:19.252Z,41.39
2023-03-10T09:05:46.413Z,41.24
2023-03-10T09:08:13.106Z,41.13
2023-03-10T09:10:40.706Z,41.18
2023-03-10T09:13:14.167Z,41.19
2023-03-10T09:15:42.075Z,41.23
2023-03-10T09:18:09.750Z,41.31
2023-03-10T09:20:37.295Z,41.23
2023-03-10T09:23:04.351Z,41.02
2023-03-10T09:25:31.347Z,41.00
2023-03-10T09:27:58.157Z,41.08
2023-03-10T09:30:24.845Z,41.23
2023-03-10T09:32:52.053Z,41.33
2023-03-10T09:35:19.482Z,41.18
2023-03-10T09:37:46.134Z,41.29
2023-03-10T09:40:18.790Z,41.35
2023-03-10T09:42:47.719Z,41.37
2023-03-10T09:45:35.371Z,41.41
2023-03-10T09:48:17.626Z,41.29
2023-03-10T09:50:46.438Z,41.38
2023-03-10T09:53:15.911Z,41.24
2023-03-10T09:55:47.867Z,41.38
2023-03-10T09:58:36.995Z,41.16
2023-03-10T10:01:05.227Z,41.75
2023-03-10T10:03:51.549Z,41.66
2023-03-10T10:06:24.307Z,41.81
2023-03-10T10:09:04.612Z,42.57
2023-03-10T10:11:33.306Z,42.65
2023-03-10T10:14:29.244Z,42.64
2023-03-10T10:17:10.131Z,42.62
2023-03-10T10:19:39.452Z,42.23
2023-03-10T10:22:05.964Z,41.90
2023-03-10T10:24:32.538Z,41.66
2023-03-10T10:26:59.165Z,41.51
2023-03-10T10:29:32.439Z,41.40
2023-03-10T10:32:16.002Z,41.18
2023-03-10T10:34:44.240Z,41.71
2023-03-10T10:37:34.746Z,41.69
2023-03-10T10:40:06.132Z,41.18
2023-03-10T10:42:34.517Z,41.29
2023-03-10T10:45:25.328Z,41.20
2023-03-10T10:47:52.433Z,41.34
2023-03-10T10:50:23.095Z,41.20
2023-03-10T10:53:16.653Z,41.24
2023-03-10T10:55:45.347Z,41.44
2023-03-10T10:58:32.265Z,41.24
2023-03-10T11:01:07.680Z,41.36
2023-03-10T11:03:39.388Z,41.32
2023-03-10T11:06:15.072Z,41.30
2023-03-10T11:08:45.025Z,41.31
2023-03-10T11:11:20.554Z,41.23
2023-03-10T11:13:52.069Z,41.64
2023-03-10T11:16:25.827Z,41.37
2023-03-10T11:19:09.193Z,40.92
2023-03-10T11:21:41.203Z,40.87
2023-03-10T11:24:53.522Z,40.97
2023-03-10T11:27:58.861Z,40.66
2023-03-10T11:30:35.228Z,40.46
2023-03-10T11:33:22.121Z,40.49
2023-03-10T11:35:55.022Z,40.81
2023-03-10T11:38:21.857Z,40.91
2023-03-10T11:40:57.302Z,40.65
2023-03-10T11:44:00.588Z,40.87
2023-03-10T11:46:41.323Z,40.89
2023-03-10T11:49:12.830Z,40.95
2023-03-10T11:51:46.736Z,40.85
2023-03-10T11:54:17.153Z,40.91
2023-03-10T11:56:43.855Z,41.03
2023-03-10T11:59:17.230Z,40.93
2023-03-10T12:01:54.103Z,40.60
2023-03-10T12:04:42.198Z,41.01
2023-03-10T12:07:38.302Z,40.96
2023-03-10T12:10:13.498Z,41.24
2023-03-10T12:12:42.581Z,41.17
2023-03-10T12:15:17.985Z,41.21
2023-03-10T12:17:47.288Z,41.09
2023-03-10T12:20:34.781Z,40.97
2023-03-10T12:23:24.405Z,41.26
2023-03-10T12:25:51.057Z,40.93
2023-03-10T12:28:17.646Z,41.12
2023-03-10T12:30:47.499Z,40.79
2023-03-10T12:33:37.444Z,40.96
2023-03-10T12:36:09.309Z,40.69
2023-03-10T12:38:40.675Z,40.87
2023-03-10T12:41:07.494Z,40.36
2023-03-10T12:43:43.056Z,40.73
2023-03-10T12:46:12.930Z,40.65
2023-03-10T12:48:43.562Z,40.67
2023-03-10T12:51:13.278Z,40.57
2023-03-10T12:54:05.234Z,40.68
2023-03-10T12:56:39.248Z,40.47
2023-03-10T12:59:20.706Z,40.39
2023-03-10T13:01:55.933Z,40.60
2023-03-10T13:04:23.697Z,40.73
2023-03-10T13:06:50.496Z,40.74
2023-03-10T13:09:38.451Z,40.59
2023-03-10T13:12:09.761Z,40.78
2023-03-10T13:14:38.643Z,41.20
2023-03-10T13:17:05.958Z,41.26
2023-03-10T13:19:35.265Z,41.09
2023-03-10T13:22:02.406Z,41.02
2023-03-10T13:24:30.066Z,41.23
2023-03-10T13:27:18.880Z,41.13
2023-03-10T13:30:17.869Z,41.20
2023-03-10T13:32:53.448Z,41.08
2023-03-10T13:35:24.819Z,41.24
2023-03-10T13:38:14.227Z,41.15
2023-03-10T13:40:58.516Z,41.18
2023-03-10T13:43:42.573Z,41.19
2023-03-10T13:46:30.440Z,41.32
2023-03-10T13:49:03.772Z,41.29
2023-03-10T13:51:32.780Z,41.38
2023-03-10T13:54:32.773Z,41.37
2023-03-10T13:57:11.590Z,41.33
2023-03-10T13:59:38.441Z,41.37
2023-03-10T14:02:19.920Z,41.32
2023-03-10T14:04:49.763Z,41.29
2023-03-10T14:07:29.327Z,41.41
2023-03-10T14:10:04.943Z,41.48
2023-03-10T14:12:42.816Z,41.48
2023-03-10T14:15:38.171Z,41.44
2023-03-10T14:18:07.842Z,41.49
2023-03-10T14:20:44.917Z,41.43
2023-03-10T14:23:22.400Z,41.26
2023-03-10T14:25:52.001Z,41.39
2023-03-10T14:28:25.868Z,41.35
2023-03-10T14:30:52.773Z,41.32
2023-03-10T14:33:19.641Z,41.26
2023-03-10T14:35:46.598Z,41.38
2023-03-10T14:38:13.458Z,41.30
2023-03-10T14:40:58.117Z,41.46
2023-03-10T14:43:26.486Z,41.37
2023-03-10T14:45:56.175Z,41.42
2023-03-10T14:48:24.918Z,41.33
2023-03-10T14:50:52.106Z,41.19
2023-03-10T14:53:21.536Z,41.31
2023-03-10T14:55:49.884Z,41.13
2023-03-10T14:58:28.752Z,41.15
2023-03-10T15:00:55.635Z,41.24
2023-03-10T15:03:22.262Z,41.15
2023-03-10T15:05:49.573Z,41.29
2023-03-10T15:08:17.524Z,41.36
2023-03-10T15:10:48.255Z,41.31
2023-03-10T15:13:16.606Z,41.07
2023-03-10T15:15:44.696Z,41.26
2023-03-10T15:18:19.793Z,41.18
2023-03-10T15:20:46.581Z,41.37
2023-03-10T15:23:16.465Z,41.16
2023-03-10T15:25:46.127Z,41.15
2023-03-10T15:28:13.453Z,41.20
2023-03-10T15:30:40.104Z,41.22
2023-03-10T15:33:06.881Z,41.22
2023-03-10T15:35:33.760Z,41.22
2023-03-10T15:38:00.390Z,41.01
2023-03-10T15:40:29.782Z,41.12
2023-03-10T15:42:57.516Z,41.11
2023-03-10T15:45:25.395Z,41.27
2023-03-10T15:47:51.953Z,41.11
2023-03-10T15:50:19.474Z,41.16
2023-03-10T15:52:50.647Z,41.09
2023-03-10T15:55:17.346Z,41.08
2023-03-10T15:57:44.835Z,41.05
2023-03-10T16:00:12.477Z,41.11
2023-03-10T16:02:39.082Z,41.12
2023-03-10T16:05:06.356Z,41.26
2023-03-10T16:07:35.838Z,41.29
2023-03-10T16:10:02.437Z,41.20
2023-03-10T16:12:29.033Z,41.03
2023-03-10T16:14:55.648Z,41.21
2023-03-10T16:17:23.501Z,41.38
2023-03-10T16:19:50.278Z,41.23
2023-03-10T16:22:17.101Z,41.29
2023-03-10T16:24:43.681Z,41.11
2023-03-10T16:27:10.346Z,41.01
2023-03-10T16:29:37.602Z,41.13
2023-03-10T16:32:04.465Z,41.15
2023-03-10T16:34:31.060Z,41.16
2023-03-10T16:36:57.948Z,41.30
2023-03-10T16:39:25.799Z,40.96
2023-03-10T16:41:52.418Z,41.12
2023-03-10T16:44:19.004Z,41.19
2023-03-10T16:46:45.585Z,41.26
2023-03-10T16:49:14.190Z,41.11
2023-03-10T16:51:42.885Z,41.41
2023-03-10T16:54:22.582Z,41.34
2023-03-10T16:56:51.621Z,41.43
2023-03-10T16:59:22.648Z,41.29
2023-03-10T17:01:50.021Z,41.34
2023-03-10T17:04:17.068Z,41.44
2023-03-10T17:06:44.275Z,41.34
2023-03-10T17:09:11.880Z,41.53
2023-03-10T17:11:45.041Z,41.42
2023-03-10T17:14:14.249Z,41.42
2023-03-10T17:16:41.782Z,41.49
2023-03-10T17:19:12.144Z,41.57
2023-03-10T17:21:40.165Z,41.50
2023-03-10T17:24:07.906Z,41.55
2023-03-10T17:26:35.216Z,41.80
2023-03-10T17:29:02.003Z,41.74
2023-03-10T17:31:29.672Z,41.76
2023-03-10T17:33:58.923Z,41.85
2023-03-10T17:36:25.790Z,41.88
2023-03-10T17:39:01.390Z,41.61
2023-03-10T17:41:29.753Z,41.73
2023-03-10T17:43:56.785Z,41.63
2023-03-10T17:46:25.945Z,41.97
2023-03-10T17:48:53.327Z,41.92
2023-03-10T17:51:23.369Z,41.97
2023-03-10T17:53:50.073Z,42.00
2023-03-10T17:56:19.713Z,41.82
2023-03-10T17:58:46.306Z,41.69
2023-03-10T18:01:15.311Z,41.70
2023-03-10T18:03:42.693Z,41.73
2023-03-10T18:06:17.174Z,41.75
2023-03-10T18:08:43.945Z,41.97
2023-03-10T18:11:10.790Z,41.68
2023-03-10T18:13:37.494Z,41.83
2023-03-10T18:16:05.412Z,41.86
2023-03-10T18:18:32.139Z,41.89
2023-03-10T18:20:58.827Z,41.73
2023-03-10T18:23:25.535Z,41.94
2023-03-10T18:25:52.106Z,42.04
2023-03-10T18:28:20.903Z,42.03
2023-03-10T18:30:49.495Z,42.13
2023-03-10T18:33:16.273Z,42.08
2023-03-10T18:35:44.655Z,42.20
2023-03-10T18:38:15.468Z,42.19
2023-03-10T18:40:42.444Z,42.13
2023-03-10T18:43:09.085Z,42.20
2023-03-10T18:45:36.179Z,42.28
2023-03-10T18:48:02.795Z,42.43
2023-03-10T18:50:29.407Z,42.26
2023-03-10T18:52:56.921Z,42.30
2023-03-10T18:55:23.916Z,42.40
2023-03-10T18:57:50.486Z,42.60
2023-03-10T19:00:18.390Z,42.65
2023-03-10T19:02:45.078Z,42.79
2023-03-10T19:05:15.383Z,42.73
2023-03-10T19:07:41.960Z,42.83
2023-03-10T19:10:11.140Z,43.04
2023-03-10T19:12:37.699Z,42.77
2023-03-10T19:15:09.171Z,42.68
2023-03-10T19:17:37.451Z,42.84
2023-03-10T19:20:07.400Z,42.71
2023-03-10T19:22:34.963Z,42.71
2023-03-10T19:25:02.406Z,42.82
2023-03-10T19:27:29.997Z,42.48
2023-03-10T19:29:56.593Z,42.78
2023-03-10T19:32:23.724Z,42.62
2023-03-10T19:34:50.386Z,42.74
2023-03-10T19:37:16.965Z,42.69
2023-03-10T19:39:43.510Z,42.36
2023-03-10T19:42:10.069Z,42.64
2023-03-10T19:44:38.800Z,42.83
2023-03-10T19:47:05.435Z,42.61
2023-03-10T19:49:34.221Z,42.62
2023-03-10T19:52:01.381Z,42.64
2023-03-10T19:54:28.029Z,42.25
2023-03-10T19:56:54.716Z,42.46
2023-03-10T19:59:21.323Z,42.31
2023-03-10T20:01:49.388Z,42.45
2023-03-10T20:04:16.305Z,42.42
2023-03-10T20:06:42.959Z,42.61
2023-03-10T20:09:10.631Z,42.64
2023-03-10T20:11:39.004Z,42.59
2023-03-10T20:14:06.164Z,42.49
2023-03-10T20:16:33.504Z,42.60
2023-03-10T20:19:00.296Z,42.61
2023-03-10T20:21:27.633Z,42.45
2023-03-10T20:23:56.190Z,42.51
2023-03-10T20:26:23.158Z,42.30
2023-03-10T20:28:49.962Z,42.74
2023-03-10T20:31:18.591Z,42.76
2023-03-10T20:33:45.871Z,42.72
2023-03-10T20:36:15.700Z,42.59
2023-03-10T20:38:44.198Z,42.60
2023-03-10T20:41:15.369Z,42.65
2023-03-10T20:43:42.671Z,42.49
2023-03-10T20:46:09.998Z,42.72
2023-03-10T20:48:36.699Z,42.45
2023-03-10T20:51:03.562Z,42.42
2023-03-10T20:53:36.109Z,42.73
2023-03-10T20:56:03.775Z,42.71
2023-03-10T20:58:30.374Z,42.70
2023-03-10T21:00:56.990Z,42.45
2023-03-10T21:03:23.641Z,42.17
2023-03-10T21:05:50.377Z,42.44
2023-03-10T21:08:16.960Z,42.47
2023-03-10T21:10:44.954Z,42.22
2023-03-10T21:13:12.132Z,42.53
2023-03-10T21:15:39.553Z,42.16
2023-03-10T21:18:06.173Z,42.31
2023-03-10T21:20:33.287Z,42.68
2023-03-10T21:23:00.486Z,42.63
2023-03-10T21:25:28.265Z,42.75
2023-03-10T21:27:58.760Z,42.78
2023-03-10T21:30:28.856Z,42.81
2023-03-10T21:32:56.932Z,42.58
2023-03-10T21:35:30.384Z,42.78
2023-03-10T21:37:57.394Z,42.79
2023-03-10T21:40:24.354Z,42.60
2023-03-10T21:42:51.243Z,42.80
2023-03-10T21:45:22.432Z,43.01
2023-03-10T21:47:49.085Z,43.04
2023-03-10T21:50:16.221Z,43.19
2023-03-10T21:52:42.906Z,43.29
2023-03-10T21:55:23.656Z,43.14
2023-03-10T21:57:50.402Z,43.26
2023-03-10T22:00:19.924Z,43.18
2023-03-10T22:02:47.465Z,43.10
2023-03-10T22:05:16.209Z,42.82
2023-03-10T22:07:42.824Z,42.90
2023-03-10T22:10:11.886Z,43.02
2023-03-10T22:12:38.858Z,42.84
2023-03-10T22:15:06.883Z,42.95
2023-03-10T22:17:33.516Z,42.90
2023-03-10T22:20:05.394Z,43.21
2023-03-10T22:22:32.068Z,43.20
2023-03-10T22:24:58.631Z,42.92
2023-03-10T22:27:25.256Z,43.05
2023-03-10T22:29:51.867Z,43.13
2023-03-10T22:32:18.462Z,43.01
2023-03-10T22:34:46.254Z,42.83
2023-03-10T22:37:13.460Z,43.41
2023-03-10T22:39:40.066Z,43.34
2023-03-10T22:42:06.910Z,43.15
2023-03-10T22:44:37.524Z,43.21
2023-03-10T22:47:05.342Z,43.40
2023-03-10T22:49:32.273Z,43.38
2023-03-10T22:51:58.883Z,43.34
2023-03-10T22:54:25.580Z,43.31
2023-03-10T22:56:52.229Z,43.18
2023-03-10T22:59:18.864Z,43.27
2023-03-10T23:01:45.437Z,43.46
2023-03-10T23:04:11.994Z,43.53
2023-03-10T23:06:38.639Z,43.56
2023-03-10T23:09:05.517Z,43.52
2023-03-10T23:11:32.443Z,43.28
2023-03-10T23:14:03.469Z,43.41
2023-03-10T23:16:36.179Z,43.36
2023-03-10T23:19:06.010Z,43.47
2023-03-10T23:21:34.585Z,43.56
2023-03-10T23:24:01.291Z,43.46
2023-03-10T23:26:30.076Z,43.20
2023-03-10T23:28:56.909Z,43.16
2023-03-10T23:31:23.612Z,43.24
2023-03-10T23:33:50.629Z,43.30
2023-03-10T23:36:17.463Z,43.32
2023-03-10T23:38:44.019Z,43.20
2023-03-10T23:41:10.698Z,43.29
2023-03-10T23:43:37.263Z,43.27
2023-03-10T23:46:08.235Z,43.41
2023-03-10T23:48:35.337Z,43.30
2023-03-10T23:51:02.901Z,43.38
2023-03-10T23:53:30.172Z,43.33
2023-03-10T23:55:58.829Z,43.85
2023-03-10T23:58:25.952Z,43.34
